Time;durP1;ratioP1;P1;durP2;ratioP2;P2;SDS_P1;SDS_P2;PMS_P1;PMS_P2;Temp;Humidity;BMP_temperature;BMP_pressure;BME280_temperature;BME280_humidity;BME280_pressure;Samples;Min_cycle;Max_cycle;Signal;HPM_P1;HPM_P2
2023/01/08 00:00:47;;;;;;;4.28;2.25;;;;;;;;;;5007410;28;20610;-65
2023/01/08 00:03:16;;;;;;;4.60;2.55;;;;;;;;;;5000311;28;20064;-64
2023/01/08 00:05:43;;;;;;;3.20;2.15;;;;;;;;;;5009394;28;20042;-64
2023/01/08 00:08:10;;;;;;;4.28;2.25;;;;;;;;;;5000202;28;20593;-64
2023/01/08 00:10:36;;;;;;;3.45;2.40;;;;;;;;;;4984674;28;20410;-65
2023/01/08 00:13:04;;;;;;;4.95;2.20;;;;;;;;;;4992229;28;20046;-65
2023/01/08 00:15:31;;;;;;;4.28;2.40;;;;;;;;;;5002995;28;20037;-64
2023/01/08 00:17:58;;;;;;;3.97;2.17;;;;;;;;;;5005678;28;20514;-65
2023/01/08 00:20:26;;;;;;;3.50;2.50;;;;;;;;;;5001366;28;20050;-64
2023/01/08 00:22:53;;;;;;;5.63;2.42;;;;;;;;;;5007829;28;20103;-64
2023/01/08 00:25:19;;;;;;;6.53;2.33;;;;;;;;;;4992601;28;20053;-64
2023/01/08 00:27:46;;;;;;;3.97;2.35;;;;;;;;;;5007870;28;20046;-64
2023/01/08 00:30:12;;;;;;;4.25;2.35;;;;;;;;;;5013881;28;20991;-65
2023/01/08 00:32:38;;;;;;;5.15;2.08;;;;;;;;;;4999906;28;20109;-65
2023/01/08 00:35:05;;;;;;;4.93;2.53;;;;;;;;;;5009033;28;20052;-66
2023/01/08 00:37:31;;;;;;;5.68;2.53;;;;;;;;;;5000612;28;20049;-66
2023/01/08 00:39:58;;;;;;;3.75;2.22;;;;;;;;;;5001393;28;20536;-64
2023/01/08 00:42:24;;;;;;;3.15;2.38;;;;;;;;;;5006496;28;20050;-65
2023/01/08 00:44:50;;;;;;;4.57;2.53;;;;;;;;;;5000480;28;20049;-64
2023/01/08 00:47:17;;;;;;;4.25;2.20;;;;;;;;;;5007983;28;20045;-65
2023/01/08 00:49:43;;;;;;;4.10;2.20;;;;;;;;;;4987110;28;20255;-64
2023/01/08 00:52:10;;;;;;;4.10;2.33;;;;;;;;;;5002237;28;20478;-64
2023/01/08 00:54:37;;;;;;;4.10;2.20;;;;;;;;;;4986542;28;20132;-64
2023/01/08 00:57:03;;;;;;;5.32;2.10;;;;;;;;;;5003719;28;20050;-64
2023/01/08 00:59:29;;;;;;;6.25;2.25;;;;;;;;;;5008989;28;20049;-64
2023/01/08 01:01:56;;;;;;;4.05;2.30;;;;;;;;;;4995190;28;20774;-64
2023/01/08 01:04:24;;;;;;;5.50;2.47;;;;;;;;;;4999327;28;20053;-65
2023/01/08 01:06:50;;;;;;;4.90;2.37;;;;;;;;;;4997974;28;20073;-64
2023/01/08 01:09:16;;;;;;;3.40;2.17;;;;;;;;;;5010932;28;20055;-65
2023/01/08 01:11:42;;;;;;;4.72;2.40;;;;;;;;;;4997987;28;20085;-65
2023/01/08 01:14:09;;;;;;;6.07;2.83;;;;;;;;;;5004267;28;20045;-65
2023/01/08 01:16:35;;;;;;;3.85;2.40;;;;;;;;;;5000556;28;20056;-65
2023/01/08 01:19:01;;;;;;;5.55;2.50;;;;;;;;;;4998647;28;20566;-65
2023/01/08 01:21:29;;;;;;;5.40;2.40;;;;;;;;;;5014807;28;20049;-65
2023/01/08 01:23:56;;;;;;;5.60;2.20;;;;;;;;;;5014527;28;20056;-65
2023/01/08 01:26:23;;;;;;;3.78;2.45;;;;;;;;;;5011235;28;20052;-65
2023/01/08 01:28:50;;;;;;;9.23;2.67;;;;;;;;;;5018396;28;20473;-65
2023/01/08 01:31:17;;;;;;;4.38;2.10;;;;;;;;;;4999030;28;20449;-66
2023/01/08 01:33:44;;;;;;;4.95;2.63;;;;;;;;;;5008245;28;20125;-65
2023/01/08 01:36:11;;;;;;;6.60;2.53;;;;;;;;;;5001080;28;20054;-65
2023/01/08 01:38:37;;;;;;;5.97;2.60;;;;;;;;;;5006308;28;20129;-65
2023/01/08 01:41:04;;;;;;;5.15;2.78;;;;;;;;;;5008258;28;20045;-65
2023/01/08 01:43:38;;;;;;;4.93;2.80;;;;;;;;;;5000061;28;20060;-65
2023/01/08 01:46:16;;;;;;;8.35;2.83;;;;;;;;;;5000959;28;20053;-65
2023/01/08 01:48:43;;;;;;;7.18;2.60;;;;;;;;;;5009204;28;20426;-65
2023/01/08 01:51:09;;;;;;;5.03;2.08;;;;;;;;;;5010088;28;20045;-65
2023/01/08 01:53:36;;;;;;;4.07;2.50;;;;;;;;;;5004992;28;20071;-64
2023/01/08 01:56:03;;;;;;;4.95;2.40;;;;;;;;;;5000135;28;20249;-64
2023/01/08 01:58:31;;;;;;;5.10;2.60;;;;;;;;;;5005407;28;20054;-64
2023/01/08 02:00:59;;;;;;;5.03;2.47;;;;;;;;;;5007282;28;20429;-62
2023/01/08 02:03:28;;;;;;;5.22;2.50;;;;;;;;;;5010956;28;20052;-62
2023/01/08 02:06:11;;;;;;;6.55;2.80;;;;;;;;;;5014082;28;20045;-62
2023/01/08 02:08:51;;;;;;;5.28;2.40;;;;;;;;;;5012985;28;20491;-62
2023/01/08 02:11:36;;;;;;;4.40;2.55;;;;;;;;;;5010201;28;20081;-64
2023/01/08 02:14:09;;;;;;;3.72;2.40;;;;;;;;;;5008696;28;20136;-62
2023/01/08 02:16:42;;;;;;;6.07;2.33;;;;;;;;;;5005225;28;20050;-62
2023/01/08 02:19:15;;;;;;;7.70;2.63;;;;;;;;;;5017435;28;20053;-62
2023/01/08 02:22:07;;;;;;;4.55;2.28;;;;;;;;;;4989881;28;20088;-61
2023/01/08 02:24:54;;;;;;;6.63;2.67;;;;;;;;;;4985572;28;20191;-61
2023/01/08 02:27:23;;;;;;;5.90;2.40;;;;;;;;;;4998254;28;20147;-62
2023/01/08 02:29:50;;;;;;;6.85;1.88;;;;;;;;;;5016396;28;20497;-63
2023/01/08 02:32:16;;;;;;;6.95;2.75;;;;;;;;;;5007450;28;20092;-62
2023/01/08 02:34:42;;;;;;;5.93;2.58;;;;;;;;;;5017771;28;20490;-61
2023/01/08 02:37:09;;;;;;;4.47;3.08;;;;;;;;;;5023887;28;20050;-63
2023/01/08 02:39:44;;;;;;;3.92;2.35;;;;;;;;;;5006331;28;20054;-61
2023/01/08 02:42:15;;;;;;;4.28;2.00;;;;;;;;;;5007940;28;20061;-62
2023/01/08 02:44:44;;;;;;;6.25;2.78;;;;;;;;;;5011015;28;20056;-62
2023/01/08 02:47:17;;;;;;;5.70;2.30;;;;;;;;;;5012104;28;20503;-61
2023/01/08 02:49:45;;;;;;;5.47;2.40;;;;;;;;;;5003713;28;20744;-62
2023/01/08 02:52:12;;;;;;;;;;;;;;;;;;5018245;28;20045;-62
2023/01/08 02:54:39;;;;;;;5.88;2.50;;;;;;;;;;5011467;28;20349;-61
2023/01/08 02:57:08;;;;;;;8.45;2.45;;;;;;;;;;5013155;28;20049;-63
2023/01/08 02:59:36;;;;;;;7.93;1.85;;;;;;;;;;5021976;28;20081;-62
2023/01/08 03:02:02;;;;;;;4.50;1.65;;;;;;;;;;4999447;28;20054;-62
2023/01/08 03:04:30;;;;;;;4.22;1.40;;;;;;;;;;5011308;28;20132;-63
2023/01/08 03:06:57;;;;;;;3.33;1.23;;;;;;;;;;5014083;28;20052;-63
2023/01/08 03:09:23;;;;;;;6.07;1.75;;;;;;;;;;5010208;28;20080;-62
2023/01/08 03:11:54;;;;;;;3.00;1.00;;;;;;;;;;5008899;28;20453;-62
2023/01/08 03:14:41;;;;;;;2.90;0.90;;;;;;;;;;5004431;28;20049;-62
2023/01/08 03:17:10;;;;;;;2.80;1.00;;;;;;;;;;5016680;28;20598;-62
2023/01/08 03:19:39;;;;;;;2.80;1.02;;;;;;;;;;5003832;28;20060;-61
2023/01/08 03:22:07;;;;;;;6.65;0.93;;;;;;;;;;5009821;28;20045;-63
2023/01/08 03:24:36;;;;;;;3.83;0.88;;;;;;;;;;5009858;28;20054;-61
2023/01/08 03:27:02;;;;;;;;;;;;;;;;;;5018175;28;20045;-62
2023/01/08 03:29:30;;;;;;;4.50;1.08;;;;;;;;;;5007406;28;19929;-62
2023/01/08 03:31:58;;;;;;;2.42;0.57;;;;;;;;;;5007905;28;20044;-61
2023/01/08 03:34:26;;;;;;;2.83;0.88;;;;;;;;;;5008163;28;20045;-62
2023/01/08 03:36:54;;;;;;;8.02;1.42;;;;;;;;;;5004214;28;20060;-62
2023/01/08 03:39:32;;;;;;;6.13;0.88;;;;;;;;;;5013291;28;20053;-63
2023/01/08 03:42:01;;;;;;;2.65;0.70;;;;;;;;;;4990406;28;20049;-62
2023/01/08 03:44:27;;;;;;;3.05;0.80;;;;;;;;;;5008266;28;20141;-63
2023/01/08 03:46:54;;;;;;;4.03;0.88;;;;;;;;;;5018339;28;20517;-63
2023/01/08 03:49:21;;;;;;;4.05;1.10;;;;;;;;;;4996727;28;20050;-63
2023/01/08 03:51:47;;;;;;;10.77;2.28;;;;;;;;;;5012151;28;20041;-63
2023/01/08 03:54:15;;;;;;;2.13;0.95;;;;;;;;;;5001297;28;20046;-63
2023/01/08 03:56:42;;;;;;;2.97;0.80;;;;;;;;;;5007466;28;20042;-63
2023/01/08 03:59:09;;;;;;;3.83;1.40;;;;;;;;;;5001079;28;20056;-63
2023/01/08 04:01:36;;;;;;;4.22;0.88;;;;;;;;;;5015538;28;20065;-63
2023/01/08 04:04:02;;;;;;;2.72;0.82;;;;;;;;;;5015941;28;20387;-63
2023/01/08 04:06:29;;;;;;;3.92;0.77;;;;;;;;;;5006721;28;20132;-63
2023/01/08 04:08:55;;;;;;;2.92;0.65;;;;;;;;;;5006961;28;20046;-63
2023/01/08 04:11:21;;;;;;;4.93;1.13;;;;;;;;;;5006799;28;20099;-63
2023/01/08 04:13:48;;;;;;;3.40;0.77;;;;;;;;;;5010429;28;20046;-63
2023/01/08 04:16:14;;;;;;;3.65;0.90;;;;;;;;;;5004775;28;20055;-63
2023/01/08 04:18:40;;;;;;;5.75;1.20;;;;;;;;;;5011744;28;20502;-63
2023/01/08 04:21:06;;;;;;;5.95;0.95;;;;;;;;;;5014992;28;20053;-63
2023/01/08 04:23:33;;;;;;;3.42;0.90;;;;;;;;;;4995514;28;20049;-63
2023/01/08 04:26:02;;;;;;;2.78;0.85;;;;;;;;;;5006628;28;20068;-63
2023/01/08 04:28:29;;;;;;;7.22;1.15;;;;;;;;;;5011963;28;20425;-63
2023/01/08 04:30:55;;;;;;;5.60;1.75;;;;;;;;;;5010769;28;20057;-63
2023/01/08 04:33:22;;;;;;;2.92;0.60;;;;;;;;;;5009913;28;20088;-64
2023/01/08 04:35:48;;;;;;;5.68;1.20;;;;;;;;;;5006768;28;20063;-63
2023/01/08 04:38:14;;;;;;;7.75;1.20;;;;;;;;;;5006505;28;20054;-64
2023/01/08 04:40:41;;;;;;;5.38;1.15;;;;;;;;;;5002010;28;20057;-64
2023/01/08 04:43:07;;;;;;;6.05;1.15;;;;;;;;;;5007323;28;20064;-64
2023/01/08 04:45:33;;;;;;;3.47;1.10;;;;;;;;;;5006432;28;20083;-63
2023/01/08 04:48:00;;;;;;;3.58;0.95;;;;;;;;;;5013009;28;20041;-64
2023/01/08 04:50:26;;;;;;;4.57;0.90;;;;;;;;;;4998097;28;20061;-64
2023/01/08 04:52:52;;;;;;;8.02;1.20;;;;;;;;;;5007746;28;20100;-64
2023/01/08 04:55:19;;;;;;;2.88;0.80;;;;;;;;;;5005674;28;20544;-64
2023/01/08 04:57:46;;;;;;;4.82;1.00;;;;;;;;;;4998616;28;20045;-64
2023/01/08 05:00:12;;;;;;;7.70;1.00;;;;;;;;;;5005416;28;20060;-64
2023/01/08 05:02:39;;;;;;;3.58;0.73;;;;;;;;;;5007908;28;20054;-64
2023/01/08 05:05:06;;;;;;;6.72;1.23;;;;;;;;;;5002373;28;20050;-64
2023/01/08 05:07:32;;;;;;;5.65;1.20;;;;;;;;;;5007024;28;20068;-64
2023/01/08 05:09:58;;;;;;;4.45;1.35;;;;;;;;;;5011184;28;20046;-64
2023/01/08 05:12:24;;;;;;;7.25;1.00;;;;;;;;;;5010367;28;20584;-64
2023/01/08 05:14:51;;;;;;;5.35;1.05;;;;;;;;;;5008398;28;20069;-64
2023/01/08 05:17:17;;;;;;;2.75;0.88;;;;;;;;;;5005570;28;20053;-64
2023/01/08 05:19:43;;;;;;;5.25;1.13;;;;;;;;;;4992001;28;20046;-64
2023/01/08 05:22:10;;;;;;;3.22;1.00;;;;;;;;;;5009947;28;20044;-64
2023/01/08 05:24:36;;;;;;;5.45;1.20;;;;;;;;;;5014117;28;20050;-64
2023/01/08 05:27:02;;;;;;;6.57;1.08;;;;;;;;;;4998034;28;20052;-64
2023/01/08 05:29:29;;;;;;;2.30;0.77;;;;;;;;;;5009962;28;20755;-64
2023/01/08 05:31:55;;;;;;;6.82;0.95;;;;;;;;;;4993569;28;20052;-64
2023/01/08 05:34:21;;;;;;;5.28;1.17;;;;;;;;;;5004519;28;20650;-64
2023/01/08 05:36:48;;;;;;;6.00;1.38;;;;;;;;;;5011225;28;20053;-64
2023/01/08 05:39:14;;;;;;;3.50;1.08;;;;;;;;;;5007332;28;20566;-64
2023/01/08 05:41:40;;;;;;;6.85;1.10;;;;;;;;;;5016407;28;20053;-64
2023/01/08 05:44:08;;;;;;;7.45;1.30;;;;;;;;;;5005404;28;20084;-64
2023/01/08 05:46:34;;;;;;;2.30;1.00;;;;;;;;;;5002388;28;20049;-64
2023/01/08 05:49:01;;;;;;;4.30;1.02;;;;;;;;;;5000057;28;20128;-64
2023/01/08 05:51:27;;;;;;;5.45;1.02;;;;;;;;;;5005990;28;20140;-64
2023/01/08 05:53:53;;;;;;;3.78;1.13;;;;;;;;;;5000317;28;20465;-64
2023/01/08 05:56:20;;;;;;;4.88;1.17;;;;;;;;;;5008588;28;20053;-64
2023/01/08 05:58:46;;;;;;;2.78;1.10;;;;;;;;;;5012204;28;20071;-64
2023/01/08 06:01:16;;;;;;;3.65;1.38;;;;;;;;;;4994960;28;20418;-63
2023/01/08 06:03:42;;;;;;;3.53;1.27;;;;;;;;;;5011941;28;20049;-64
2023/01/08 06:06:09;;;;;;;5.03;1.00;;;;;;;;;;5000024;28;20046;-64
2023/01/08 06:08:36;;;;;;;2.22;1.10;;;;;;;;;;5006373;28;20061;-64
2023/01/08 06:11:04;;;;;;;4.65;1.42;;;;;;;;;;4989001;28;20050;-64
2023/01/08 06:13:31;;;;;;;2.55;1.00;;;;;;;;;;5003467;28;20054;-65
2023/01/08 06:15:59;;;;;;;2.05;1.00;;;;;;;;;;5011468;28;20046;-64
2023/01/08 06:18:25;;;;;;;4.40;1.08;;;;;;;;;;4999682;28;20136;-64
2023/01/08 06:20:52;;;;;;;2.90;0.82;;;;;;;;;;5012220;28;20054;-64
2023/01/08 06:23:18;;;;;;;4.13;1.00;;;;;;;;;;5006616;28;20446;-64
2023/01/08 06:25:50;;;;;;;2.28;0.75;;;;;;;;;;5014740;28;20065;-64
2023/01/08 06:28:16;;;;;;;5.40;1.10;;;;;;;;;;5000251;28;20298;-64
2023/01/08 06:30:42;;;;;;;5.95;0.80;;;;;;;;;;5008950;28;20049;-64
2023/01/08 06:33:08;;;;;;;2.10;0.90;;;;;;;;;;5005502;28;20050;-64
2023/01/08 06:35:35;;;;;;;4.55;1.10;;;;;;;;;;5000842;28;20574;-64
2023/01/08 06:38:01;;;;;;;2.13;0.77;;;;;;;;;;5012362;28;20054;-64
2023/01/08 06:40:27;;;;;;;3.03;0.80;;;;;;;;;;5004134;28;20425;-64
2023/01/08 06:42:54;;;;;;;4.80;1.23;;;;;;;;;;5003372;28;20049;-64
2023/01/08 06:45:20;;;;;;;2.58;1.00;;;;;;;;;;5008674;28;20845;-64
2023/01/08 06:47:46;;;;;;;4.35;1.00;;;;;;;;;;5009371;28;20050;-64
2023/01/08 06:50:13;;;;;;;2.72;1.08;;;;;;;;;;5009527;28;20482;-64
2023/01/08 06:52:39;;;;;;;2.97;1.00;;;;;;;;;;5000913;28;20057;-64
2023/01/08 06:55:05;;;;;;;4.25;1.15;;;;;;;;;;5001241;28;20050;-64
2023/01/08 06:57:32;;;;;;;6.00;1.35;;;;;;;;;;5006008;28;20042;-65
2023/01/08 06:59:58;;;;;;;3.08;1.15;;;;;;;;;;5008163;28;20137;-64
2023/01/08 07:02:24;;;;;;;6.18;1.23;;;;;;;;;;4996232;28;20046;-64
2023/01/08 07:04:51;;;;;;;4.15;1.00;;;;;;;;;;5010743;28;20049;-64
2023/01/08 07:07:17;;;;;;;5.43;0.95;;;;;;;;;;5010151;28;20544;-64
2023/01/08 07:09:43;;;;;;;2.60;0.90;;;;;;;;;;5007796;28;20045;-64
2023/01/08 07:12:11;;;;;;;4.38;1.17;;;;;;;;;;5018511;28;20049;-64
2023/01/08 07:14:37;;;;;;;6.07;1.38;;;;;;;;;;5007501;28;20176;-64
2023/01/08 07:17:03;;;;;;;5.60;1.30;;;;;;;;;;5011296;28;20045;-64
2023/01/08 07:19:30;;;;;;;5.93;1.40;;;;;;;;;;5008850;28;20045;-64
2023/01/08 07:21:56;;;;;;;4.75;1.20;;;;;;;;;;4998770;28;20518;-64
2023/01/08 07:24:23;;;;;;;1.90;0.98;;;;;;;;;;5009914;28;20056;-63
2023/01/08 07:26:49;;;;;;;3.88;1.52;;;;;;;;;;5009105;28;20425;-64
2023/01/08 07:29:15;;;;;;;4.22;1.00;;;;;;;;;;5016573;28;20046;-65
2023/01/08 07:31:41;;;;;;;4.75;0.90;;;;;;;;;;5005903;28;20574;-65
2023/01/08 07:34:08;;;;;;;6.35;1.00;;;;;;;;;;5003622;28;20045;-64
2023/01/08 07:36:34;;;;;;;5.60;1.10;;;;;;;;;;5001911;28;20061;-66
2023/01/08 07:39:01;;;;;;;6.25;1.00;;;;;;;;;;5000001;28;20065;-65
2023/01/08 07:41:27;;;;;;;4.68;1.45;;;;;;;;;;5011901;28;20054;-65
2023/01/08 07:43:53;;;;;;;4.22;1.40;;;;;;;;;;5014633;28;20104;-64
2023/01/08 07:46:21;;;;;;;3.92;0.98;;;;;;;;;;5021426;28;20405;-65
2023/01/08 07:48:48;;;;;;;3.17;0.85;;;;;;;;;;5000179;28;20081;-65
2023/01/08 07:51:14;;;;;;;4.35;1.15;;;;;;;;;;5006661;28;20049;-65
2023/01/08 07:53:41;;;;;;;7.88;1.20;;;;;;;;;;5014274;28;20046;-66
2023/01/08 07:56:09;;;;;;;5.30;1.30;;;;;;;;;;5004391;28;20050;-65
2023/01/08 07:58:36;;;;;;;7.60;1.87;;;;;;;;;;5014715;28;20613;-64
2023/01/08 08:01:05;;;;;;;4.30;1.35;;;;;;;;;;5015202;28;20121;-64
2023/01/08 08:03:31;;;;;;;3.80;1.15;;;;;;;;;;5017720;28;20065;-64
2023/01/08 08:05:58;;;;;;;6.53;0.93;;;;;;;;;;5014181;28;20049;-64
2023/01/08 08:08:25;;;;;;;4.22;0.80;;;;;;;;;;5014033;28;20058;-64
2023/01/08 08:10:51;;;;;;;7.88;1.17;;;;;;;;;;5016794;28;20038;-65
2023/01/08 08:13:17;;;;;;;6.07;1.02;;;;;;;;;;4997914;28;20054;-64
2023/01/08 08:15:44;;;;;;;7.30;1.70;;;;;;;;;;5020098;28;20073;-64
2023/01/08 08:18:10;;;;;;;6.20;1.58;;;;;;;;;;5002637;28;20085;-65
2023/01/08 08:20:37;;;;;;;8.02;1.20;;;;;;;;;;5015671;28;20580;-66
2023/01/08 08:23:05;;;;;;;8.13;1.20;;;;;;;;;;5017834;28;20045;-65
2023/01/08 08:25:32;;;;;;;5.45;1.23;;;;;;;;;;5013117;28;20049;-64
2023/01/08 08:27:59;;;;;;;8.82;1.52;;;;;;;;;;5011158;28;20461;-64
2023/01/08 08:30:26;;;;;;;4.88;1.02;;;;;;;;;;5009244;28;20474;-65
2023/01/08 08:32:52;;;;;;;5.13;1.05;;;;;;;;;;5005471;28;20052;-65
2023/01/08 08:35:19;;;;;;;5.85;1.20;;;;;;;;;;5010903;28;20053;-63
2023/01/08 08:37:46;;;;;;;6.28;1.10;;;;;;;;;;5010220;28;20054;-64
2023/01/08 08:40:12;;;;;;;8.68;1.70;;;;;;;;;;5020863;28;20053;-64
2023/01/08 08:42:38;;;;;;;7.28;1.50;;;;;;;;;;5001334;28;20068;-64
2023/01/08 08:45:05;;;;;;;7.35;1.33;;;;;;;;;;5011082;28;20055;-65
2023/01/08 08:47:31;;;;;;;7.28;1.45;;;;;;;;;;5005005;28;20065;-65
2023/01/08 08:49:58;;;;;;;6.03;1.27;;;;;;;;;;5014387;28;20623;-64
2023/01/08 08:52:24;;;;;;;6.13;1.35;;;;;;;;;;5000028;28;20054;-63
2023/01/08 08:54:50;;;;;;;10.25;1.50;;;;;;;;;;5011274;28;20049;-64
2023/01/08 08:57:17;;;;;;;5.97;1.10;;;;;;;;;;5011672;28;20081;-61
2023/01/08 08:59:43;;;;;;;6.28;1.00;;;;;;;;;;4998876;28;20046;-63
2023/01/08 09:02:10;;;;;;;9.48;1.35;;;;;;;;;;5009223;28;20417;-62
2023/01/08 09:04:37;;;;;;;4.90;1.38;;;;;;;;;;4999384;28;20062;-64
2023/01/08 09:07:03;;;;;;;5.00;1.27;;;;;;;;;;5011656;28;20055;-63
2023/01/08 09:09:30;;;;;;;7.47;1.30;;;;;;;;;;5001938;28;20072;-63
2023/01/08 09:11:56;;;;;;;9.65;1.20;;;;;;;;;;5010851;28;20045;-62
2023/01/08 09:14:22;;;;;;;9.38;1.52;;;;;;;;;;4998700;28;20061;-63
2023/01/08 09:16:49;;;;;;;6.15;1.42;;;;;;;;;;5000763;28;20486;-64
2023/01/08 09:19:15;;;;;;;8.85;1.10;;;;;;;;;;5015020;28;20049;-63
2023/01/08 09:21:42;;;;;;;8.45;1.08;;;;;;;;;;5011816;28;20057;-64
2023/01/08 09:24:08;;;;;;;7.47;1.02;;;;;;;;;;5011154;28;20049;-63
2023/01/08 09:26:34;;;;;;;7.63;1.25;;;;;;;;;;4999126;28;20057;-63
2023/01/08 09:29:01;;;;;;;5.30;1.05;;;;;;;;;;5009987;28;20136;-63
2023/01/08 09:31:27;;;;;;;10.18;2.28;;;;;;;;;;4983541;28;20049;-62
2023/01/08 09:33:54;;;;;;;8.68;1.30;;;;;;;;;;5003581;28;20046;-63
2023/01/08 09:36:20;;;;;;;11.25;1.50;;;;;;;;;;5012997;28;20093;-62
2023/01/08 09:38:46;;;;;;;9.07;2.00;;;;;;;;;;5003910;28;20100;-63
2023/01/08 09:41:21;;;;;;;8.15;1.40;;;;;;;;;;5003509;28;20056;-62
2023/01/08 09:43:49;;;;;;;4.13;1.20;;;;;;;;;;5003825;28;20049;-63
2023/01/08 09:46:17;;;;;;;9.70;1.98;;;;;;;;;;5006605;28;20060;-64
2023/01/08 09:48:44;;;;;;;9.02;1.08;;;;;;;;;;5012870;28;20057;-63
2023/01/08 09:51:14;;;;;;;8.18;1.48;;;;;;;;;;5002028;28;20450;-64
2023/01/08 09:53:42;;;;;;;5.05;1.10;;;;;;;;;;5018831;28;20064;-65
2023/01/08 09:56:13;;;;;;;8.30;1.67;;;;;;;;;;4995350;28;20050;-63
2023/01/08 09:58:43;;;;;;;9.40;1.50;;;;;;;;;;5014721;28;20425;-63
2023/01/08 10:01:15;;;;;;;5.88;1.00;;;;;;;;;;5001275;28;20512;-64
2023/01/08 10:03:50;;;;;;;6.85;1.63;;;;;;;;;;5017954;28;20057;-63
2023/01/08 10:06:16;;;;;;;14.43;1.55;;;;;;;;;;5011902;28;20095;-64
2023/01/08 10:08:43;;;;;;;10.13;1.40;;;;;;;;;;5003851;28;20053;-64
2023/01/08 10:11:15;;;;;;;7.03;1.45;;;;;;;;;;5010569;28;20410;-64
2023/01/08 10:13:44;;;;;;;10.02;1.60;;;;;;;;;;4986459;28;20050;-63
2023/01/08 10:16:15;;;;;;;8.95;1.58;;;;;;;;;;5022008;28;20046;-65
2023/01/08 10:18:42;;;;;;;7.95;2.00;;;;;;;;;;5001331;28;20277;-64
2023/01/08 10:21:13;;;;;;;8.73;1.45;;;;;;;;;;5005021;28;20818;-64
2023/01/08 10:23:47;;;;;;;11.02;1.48;;;;;;;;;;5004577;28;20103;-65
2023/01/08 10:26:23;;;;;;;9.15;1.58;;;;;;;;;;5016369;28;20061;-63
2023/01/08 10:28:49;;;;;;;7.80;1.88;;;;;;;;;;5014322;28;20057;-63
2023/01/08 10:31:16;;;;;;;5.97;1.50;;;;;;;;;;4998683;28;20041;-63
2023/01/08 10:33:44;;;;;;;9.02;1.52;;;;;;;;;;4994217;28;20069;-64
2023/01/08 10:36:15;;;;;;;8.77;1.63;;;;;;;;;;5006521;28;20099;-64
2023/01/08 10:38:48;;;;;;;13.07;2.85;;;;;;;;;;5016078;28;20450;-63
2023/01/08 10:41:14;;;;;;;9.15;1.65;;;;;;;;;;5006748;28;20050;-64
2023/01/08 10:43:48;;;;;;;6.82;1.55;;;;;;;;;;5016721;28;20060;-64
2023/01/08 10:46:24;;;;;;;6.53;1.65;;;;;;;;;;5012124;28;20608;-63
2023/01/08 10:48:52;;;;;;;8.13;1.92;;;;;;;;;;5001325;28;20054;-61
2023/01/08 10:51:22;;;;;;;9.80;1.98;;;;;;;;;;5020190;28;20057;-62
2023/01/08 10:53:49;;;;;;;9.82;1.65;;;;;;;;;;5003665;28;20057;-62
2023/01/08 10:56:20;;;;;;;7.18;1.60;;;;;;;;;;5009048;28;20050;-62
2023/01/08 10:58:47;;;;;;;6.47;1.23;;;;;;;;;;4989627;28;20053;-62
2023/01/08 11:01:16;;;;;;;8.95;1.48;;;;;;;;;;5007270;28;20052;-63
2023/01/08 11:03:47;;;;;;;8.27;1.73;;;;;;;;;;4985078;28;20041;-64
2023/01/08 11:06:26;;;;;;;5.35;1.30;;;;;;;;;;5011377;28;20049;-63
2023/01/08 11:08:52;;;;;;;;;;;;;;;;;;5010871;28;20054;-63
2023/01/08 11:11:19;;;;;;;8.00;1.60;;;;;;;;;;5009814;28;19929;-63
2023/01/08 11:13:59;;;;;;;8.57;1.50;;;;;;;;;;5010393;28;20079;-63
2023/01/08 11:16:32;;;;;;;6.13;1.55;;;;;;;;;;5002520;28;20045;-65
2023/01/08 11:18:59;;;;;;;7.90;1.80;;;;;;;;;;5012527;28;20045;-66
2023/01/08 11:21:27;;;;;;;11.13;1.50;;;;;;;;;;5005882;28;20108;-65
2023/01/08 11:24:12;;;;;;;10.77;1.70;;;;;;;;;;5015169;28;20048;-65
2023/01/08 11:26:39;;;;;;;7.78;1.85;;;;;;;;;;5020333;28;20534;-66
2023/01/08 11:29:37;;;;;;;4.70;1.40;;;;;;;;;;5014883;28;20296;-66
2023/01/08 11:32:19;;;;;;;8.32;1.92;;;;;;;;;;4999896;28;20529;-65
2023/01/08 11:34:59;;;;;;;7.75;1.70;;;;;;;;;;5010341;28;20655;-65
2023/01/08 11:37:37;;;;;;;6.32;1.77;;;;;;;;;;5012560;28;20064;-64
2023/01/08 11:40:22;;;;;;;8.77;1.57;;;;;;;;;;5004611;28;20394;-64
2023/01/08 11:42:52;;;;;;;8.25;1.52;;;;;;;;;;5009201;28;20765;-64
2023/01/08 11:45:28;;;;;;;5.95;1.40;;;;;;;;;;4990211;28;20139;-65
2023/01/08 11:47:55;;;;;;;4.82;1.30;;;;;;;;;;5007627;28;20138;-65
2023/01/08 11:50:28;;;;;;;7.20;1.58;;;;;;;;;;5013744;28;20049;-64
2023/01/08 11:53:13;;;;;;;6.45;1.60;;;;;;;;;;5012948;28;20046;-65
2023/01/08 11:55:58;;;;;;;4.45;1.17;;;;;;;;;;5008719;28;20045;-65
2023/01/08 11:58:40;;;;;;;4.45;1.00;;;;;;;;;;4996529;28;20562;-66
2023/01/08 12:01:11;;;;;;;5.18;0.95;;;;;;;;;;5005076;28;20512;-65
2023/01/08 12:03:48;;;;;;;4.72;1.00;;;;;;;;;;5002262;28;20041;-66
2023/01/08 12:06:30;;;;;;;5.80;1.33;;;;;;;;;;5007708;28;20049;-66
2023/01/08 12:09:08;;;;;;;2.92;0.77;;;;;;;;;;5000519;28;20068;-66
2023/01/08 12:11:42;;;;;;;2.03;0.60;;;;;;;;;;5004980;28;20208;-66
2023/01/08 12:14:24;;;;;;;3.60;0.90;;;;;;;;;;4998324;28;20048;-65
2023/01/08 12:17:01;;;;;;;2.10;0.57;;;;;;;;;;5011674;28;20045;-66
2023/01/08 12:19:54;;;;;;;3.00;0.75;;;;;;;;;;5008380;28;20049;-64
2023/01/08 12:22:31;;;;;;;2.72;0.55;;;;;;;;;;4985758;28;20054;-64
2023/01/08 12:25:19;;;;;;;2.67;0.70;;;;;;;;;;5010236;28;20549;-64
2023/01/08 12:27:45;;;;;;;;;;;;;;;;;;5001382;28;20599;-64
2023/01/08 12:30:41;;;;;;;1.77;0.73;;;;;;;;;;5003846;28;19925;-64
2023/01/08 12:33:19;;;;;;;1.60;0.70;;;;;;;;;;5004499;28;20064;-64
2023/01/08 12:35:48;;;;;;;1.95;0.65;;;;;;;;;;5004372;28;20054;-65
2023/01/08 12:38:21;;;;;;;2.15;0.70;;;;;;;;;;5005551;28;20052;-65
2023/01/08 12:40:49;;;;;;;2.50;0.77;;;;;;;;;;5006143;28;20417;-62
2023/01/08 12:43:23;;;;;;;2.17;0.73;;;;;;;;;;5000754;28;20049;-63
2023/01/08 12:45:50;;;;;;;3.90;0.80;;;;;;;;;;5006721;28;20108;-63
2023/01/08 12:48:19;;;;;;;1.83;0.63;;;;;;;;;;5012919;28;20068;-62
2023/01/08 12:50:56;;;;;;;1.45;0.50;;;;;;;;;;5015187;28;20888;-64
2023/01/08 12:53:34;;;;;;;1.40;0.70;;;;;;;;;;5009048;28;20046;-62
2023/01/08 12:56:15;;;;;;;1.88;0.60;;;;;;;;;;4999103;28;20078;-62
2023/01/08 12:58:44;;;;;;;3.15;0.85;;;;;;;;;;5005676;28;20115;-62
2023/01/08 13:01:16;;;;;;;2.17;0.70;;;;;;;;;;5002923;28;20070;-62
2023/01/08 13:03:43;;;;;;;2.03;0.60;;;;;;;;;;5002511;28;20045;-62
2023/01/08 13:06:14;;;;;;;0.93;0.52;;;;;;;;;;5001699;28;20571;-62
2023/01/08 13:08:43;;;;;;;1.25;0.50;;;;;;;;;;5005777;28;20086;-62
2023/01/08 13:11:10;;;;;;;1.90;0.85;;;;;;;;;;5012853;28;20053;-63
2023/01/08 13:13:40;;;;;;;3.28;0.95;;;;;;;;;;5011876;28;20493;-63
2023/01/08 13:16:27;;;;;;;2.47;0.85;;;;;;;;;;5016850;28;20075;-62
2023/01/08 13:19:00;;;;;;;3.17;1.25;;;;;;;;;;5001313;28;20147;-63
2023/01/08 13:21:30;;;;;;;4.68;1.42;;;;;;;;;;5005375;28;20049;-62
2023/01/08 13:24:00;;;;;;;4.72;0.95;;;;;;;;;;4996887;28;20042;-62
2023/01/08 13:26:28;;;;;;;2.45;0.75;;;;;;;;;;5012877;28;20047;-61
2023/01/08 13:29:04;;;;;;;1.80;0.98;;;;;;;;;;4995382;28;20508;-64
2023/01/08 13:31:37;;;;;;;1.92;0.90;;;;;;;;;;5011522;28;20516;-62
2023/01/08 13:34:16;;;;;;;4.85;1.33;;;;;;;;;;5007303;28;20076;-63
2023/01/08 13:36:53;;;;;;;2.58;1.10;;;;;;;;;;5009212;28;20050;-63
2023/01/08 13:39:23;;;;;;;4.03;0.93;;;;;;;;;;5008391;28;20050;-64
2023/01/08 13:42:01;;;;;;;3.50;1.02;;;;;;;;;;4993003;28;20095;-63
2023/01/08 13:44:28;;;;;;;5.20;1.15;;;;;;;;;;5017197;28;20033;-63
2023/01/08 13:47:00;;;;;;;3.55;1.00;;;;;;;;;;5008868;28;20053;-65
2023/01/08 13:49:43;;;;;;;2.45;0.95;;;;;;;;;;5014374;28;20580;-64
2023/01/08 13:52:33;;;;;;;3.10;1.00;;;;;;;;;;4998923;28;20038;-63
2023/01/08 13:55:01;;;;;;;4.78;1.13;;;;;;;;;;4999573;28;20045;-64
2023/01/08 13:57:32;;;;;;;2.05;0.90;;;;;;;;;;5001124;28;20890;-63
2023/01/08 13:59:59;;;;;;;3.83;0.90;;;;;;;;;;5007512;28;20050;-64
2023/01/08 14:02:30;;;;;;;4.65;1.13;;;;;;;;;;5006490;28;20054;-64
2023/01/08 14:04:58;;;;;;;6.28;1.20;;;;;;;;;;4981311;28;20065;-62
2023/01/08 14:07:25;;;;;;;2.75;0.73;;;;;;;;;;5000617;28;20045;-63
2023/01/08 14:09:51;;;;;;;3.78;1.17;;;;;;;;;;5002892;28;20053;-63
2023/01/08 14:12:20;;;;;;;5.13;1.27;;;;;;;;;;5007941;28;20483;-63
2023/01/08 14:14:51;;;;;;;7.28;1.42;;;;;;;;;;5003286;28;20042;-63
2023/01/08 14:17:20;;;;;;;3.65;1.23;;;;;;;;;;5005595;28;20050;-63
2023/01/08 14:19:46;;;;;;;2.75;1.05;;;;;;;;;;4991980;28;20050;-65
2023/01/08 14:22:15;;;;;;;5.47;1.20;;;;;;;;;;5004666;28;20042;-64
2023/01/08 14:24:43;;;;;;;6.43;1.58;;;;;;;;;;5010464;28;20045;-63
2023/01/08 14:27:18;;;;;;;4.97;1.15;;;;;;;;;;4980435;28;20053;-63
2023/01/08 14:29:45;;;;;;;5.53;1.08;;;;;;;;;;5005634;28;20129;-66
2023/01/08 14:32:14;;;;;;;4.32;0.90;;;;;;;;;;4985631;28;20589;-63
2023/01/08 14:34:41;;;;;;;5.57;1.00;;;;;;;;;;5001500;28;20049;-63
2023/01/08 14:37:11;;;;;;;4.85;1.30;;;;;;;;;;5001474;28;20494;-63
2023/01/08 14:39:37;;;;;;;4.43;1.40;;;;;;;;;;5005124;28;20046;-63
2023/01/08 14:44:55;;;;;;;4.53;0.95;;;;;;;;;;5001891;28;20058;-63
2023/01/08 14:47:22;;;;;;;5.88;1.10;;;;;;;;;;5003820;28;20046;-65
2023/01/08 14:49:51;;;;;;;7.63;1.58;;;;;;;;;;5001599;28;20049;-63
2023/01/08 14:52:20;;;;;;;3.25;0.88;;;;;;;;;;5010694;28;20056;-63
2023/01/08 14:54:48;;;;;;;6.32;1.27;;;;;;;;;;4998865;28;20539;-67
2023/01/08 14:57:16;;;;;;;5.88;0.90;;;;;;;;;;5002202;28;20045;-63